createdAt,value
2023-03-11T00:00:49.453Z,64.54
2023-03-11T00:05:53.191Z,64.30
2023-03-11T00:10:56.449Z,63.89
2023-03-11T00:15:59.442Z,64.80
2023-03-11T00:21:01.274Z,64.25
2023-03-11T00:26:03.310Z,64.34
2023-03-11T00:31:05.442Z,64.25
2023-03-11T00:36:07.230Z,64.32
2023-03-11T00:41:08.602Z,64.31
2023-03-11T00:46:10.147Z,64.63
2023-03-11T00:51:14.184Z,64.31
2023-03-11T00:56:16.094Z,64.70
2023-03-11T01:06:39.258Z,63.95
2023-03-11T01:11:45.980Z,63.95
2023-03-11T01:16:47.484Z,63.79
2023-03-11T01:21:49.081Z,63.63
2023-03-11T01:26:50.419Z,63.50
2023-03-11T01:31:51.768Z,63.54
2023-03-11T01:36:53.119Z,63.36
2023-03-11T01:41:56.062Z,63.34
2023-03-11T01:46:59.868Z,62.88
2023-03-11T01:52:07.674Z,62.58
2023-03-11T01:57:13.411Z,62.91
2023-03-11T02:02:21.534Z,64.38
2023-03-11T02:07:22.940Z,65.01
2023-03-11T02:12:25.337Z,66.39
2023-03-11T02:17:26.973Z,67.05
2023-03-11T02:22:31.788Z,65.94
2023-03-11T02:27:36.091Z,65.68
2023-03-11T02:32:38.063Z,64.87
2023-03-11T02:37:45.424Z,64.65
2023-03-11T02:42:46.855Z,64.46
2023-03-11T02:47:49.044Z,64.06
2023-03-11T02:52:51.251Z,64.31
2023-03-11T02:57:52.583Z,64.06
2023-03-11T03:02:57.585Z,64.10
2023-03-11T03:07:59.054Z,63.96
2023-03-11T03:13:00.364Z,63.38
2023-03-11T03:18:01.913Z,63.81
2023-03-11T03:23:03.410Z,63.64
2023-03-11T03:28:04.842Z,63.25
2023-03-11T03:33:07.181Z,63.39
2023-03-11T03:38:08.566Z,63.50
2023-03-11T03:43:09.869Z,63.48
2023-03-11T03:48:11.195Z,63.39
2023-03-11T03:53:12.514Z,63.93
2023-03-11T03:58:13.894Z,63.58
2023-03-11T04:03:15.233Z,63.77
2023-03-11T04:08:16.794Z,64.02
2023-03-11T04:13:18.120Z,63.57
2023-03-11T04:18:19.540Z,62.42
2023-03-11T04:23:20.946Z,62.02
2023-03-11T04:28:22.260Z,62.02
2023-03-11T04:33:23.618Z,62.09
2023-03-11T04:38:25.155Z,61.83
2023-03-11T04:43:26.497Z,61.81
2023-03-11T04:48:27.933Z,62.08
2023-03-11T04:53:29.351Z,62.28
2023-03-11T04:58:30.685Z,61.83
2023-03-11T05:03:32.144Z,61.95
2023-03-11T05:08:33.594Z,61.71
2023-03-11T05:13:35.278Z,61.39
2023-03-11T05:18:36.611Z,61.36
2023-03-11T05:23:37.915Z,61.84
2023-03-11T05:28:39.270Z,61.60
2023-03-11T05:33:40.773Z,61.42
2023-03-11T05:38:42.110Z,61.45
2023-03-11T05:43:43.441Z,62.01
2023-03-11T05:48:44.816Z,61.71
2023-03-11T05:53:48.552Z,61.70
2023-03-11T05:58:50.343Z,61.55
2023-03-11T06:03:51.771Z,61.28
2023-03-11T06:08:54.384Z,61.67
2023-03-11T06:13:57.790Z,61.62
2023-03-11T06:19:00.701Z,61.59
2023-03-11T06:24:02.202Z,61.34
2023-03-11T06:29:03.556Z,60.86
2023-03-11T06:34:06.215Z,60.16
2023-03-11T06:39:07.652Z,60.31
2023-03-11T06:44:10.658Z,60.40
2023-03-11T06:49:11.983Z,60.61
2023-03-11T06:54:13.328Z,60.29
2023-03-11T06:59:15.478Z,60.91
2023-03-11T07:04:16.862Z,60.15
2023-03-11T07:09:18.280Z,59.83
2023-03-11T07:14:20.432Z,59.45
2023-03-11T07:19:22.151Z,59.00
2023-03-11T07:24:23.528Z,58.63
2023-03-11T07:29:24.886Z,58.07
2023-03-11T07:34:26.550Z,58.43
2023-03-11T07:39:27.981Z,58.10
2023-03-11T07:44:29.462Z,57.42
2023-03-11T07:49:30.959Z,57.33
2023-03-11T07:54:32.578Z,57.76
2023-03-11T07:59:33.952Z,57.20
2023-03-11T08:04:35.504Z,57.22
2023-03-11T08:09:36.994Z,57.01
2023-03-11T08:14:39.595Z,56.45
2023-03-11T08:19:40.958Z,56.37
2023-03-11T08:24:42.549Z,56.20
2023-03-11T08:29:43.972Z,55.63
2023-03-11T08:34:45.472Z,55.40
2023-03-11T08:39:47.059Z,55.50
2023-03-11T08:44:48.514Z,55.07
2023-03-11T08:49:49.875Z,54.84
2023-03-11T08:54:51.201Z,55.24
2023-03-11T08:59:52.582Z,54.98
2023-03-11T09:04:53.928Z,54.33
2023-03-11T09:09:55.346Z,54.07
2023-03-11T09:14:56.722Z,53.67
2023-03-11T09:19:58.114Z,53.31
2023-03-11T09:24:59.437Z,52.50
2023-03-11T09:30:00.795Z,52.19
2023-03-11T09:35:02.413Z,52.12
2023-03-11T09:40:04.231Z,51.80
2023-03-11T09:45:29.662Z,51.39
2023-03-11T09:50:35.136Z,51.12
2023-03-11T09:55:42.954Z,50.66
2023-03-11T10:00:45.395Z,49.52
2023-03-11T10:05:46.995Z,50.02
2023-03-11T10:10:59.397Z,48.74
2023-03-11T10:16:13.211Z,49.02
2023-03-11T10:21:35.727Z,48.19
2023-03-11T10:26:48.509Z,47.70
2023-03-11T10:32:02.681Z,47.07
2023-03-11T10:37:16.273Z,47.46
2023-03-11T10:42:28.606Z,47.82
2023-03-11T10:47:29.970Z,47.87
2023-03-11T10:52:31.328Z,47.27
2023-03-11T10:57:35.148Z,47.25
2023-03-11T11:02:50.208Z,46.12
2023-03-11T11:08:22.010Z,46.61
2023-03-11T11:13:25.935Z,45.83
2023-03-11T11:18:32.076Z,45.45
2023-03-11T11:23:38.394Z,43.99
2023-03-11T11:28:39.762Z,44.12
2023-03-11T11:33:50.825Z,43.76
2023-03-11T11:38:54.452Z,42.59
2023-03-11T11:44:05.809Z,42.71
2023-03-11T11:49:29.280Z,41.58
2023-03-11T11:54:35.084Z,41.38
2023-03-11T11:59:36.498Z,41.87
2023-03-11T12:04:53.332Z,41.66
2023-03-11T12:10:21.464Z,42.03
2023-03-11T12:15:33.713Z,42.06
2023-03-11T12:20:45.533Z,41.39
2023-03-11T12:26:04.655Z,41.37
2023-03-11T12:31:10.149Z,41.30
2023-03-11T12:36:31.899Z,40.85
2023-03-11T12:41:42.059Z,40.65
2023-03-11T12:46:58.534Z,39.82
2023-03-11T12:52:09.007Z,40.77
2023-03-11T12:57:19.508Z,40.30
2023-03-11T13:02:36.676Z,40.36
2023-03-11T13:07:46.263Z,40.18
2023-03-11T13:12:52.141Z,40.44
2023-03-11T13:18:02.191Z,39.14
2023-03-11T13:23:03.485Z,38.78
2023-03-11T13:28:41.729Z,38.76
2023-03-11T13:33:54.530Z,39.02
2023-03-11T13:39:12.464Z,39.34
2023-03-11T13:44:13.719Z,39.05
2023-03-11T13:49:33.581Z,39.80
2023-03-11T13:54:42.431Z,39.18
2023-03-11T13:59:43.753Z,39.37
2023-03-11T14:04:51.631Z,38.85
2023-03-11T14:10:11.299Z,39.19
2023-03-11T14:15:18.562Z,38.85
2023-03-11T14:20:23.663Z,38.72
2023-03-11T14:25:27.990Z,38.08
2023-03-11T14:30:31.384Z,38.61
2023-03-11T14:35:34.139Z,38.11
2023-03-11T14:40:41.952Z,37.96
2023-03-11T14:45:43.929Z,38.16
2023-03-11T14:50:49.306Z,38.33
2023-03-11T14:55:59.504Z,38.25
2023-03-11T15:01:26.061Z,37.99
2023-03-11T15:06:29.725Z,37.96
2023-03-11T15:11:32.595Z,38.04
2023-03-11T15:16:36.586Z,37.57
2023-03-11T15:21:46.252Z,37.71
2023-03-11T15:27:01.172Z,38.21
2023-03-11T15:32:31.557Z,37.70
2023-03-11T15:37:33.718Z,37.31
2023-03-11T15:42:35.114Z,37.89
2023-03-11T15:47:37.161Z,37.98
2023-03-11T15:52:38.473Z,37.95
2023-03-11T15:57:40.218Z,37.53
2023-03-11T16:02:41.877Z,37.99
2023-03-11T16:07:43.300Z,37.81
2023-03-11T16:12:44.699Z,37.55
2023-03-11T16:17:50.050Z,37.15
2023-03-11T16:22:54.776Z,37.56
2023-03-11T16:27:57.168Z,37.56
2023-03-11T16:32:58.658Z,38.35
2023-03-11T16:38:00.389Z,37.91
2023-03-11T16:43:05.036Z,38.21
2023-03-11T16:48:07.212Z,38.69
2023-03-11T16:53:08.582Z,39.01
2023-03-11T16:58:10.304Z,38.98
2023-03-11T17:03:17.240Z,38.90
2023-03-11T17:08:19.628Z,39.14
2023-03-11T17:13:20.983Z,39.61
2023-03-11T17:18:22.325Z,39.16
2023-03-11T17:23:24.288Z,39.68
2023-03-11T17:28:25.832Z,40.13
2023-03-11T17:33:27.596Z,39.94
2023-03-11T17:38:29.445Z,40.68
2023-03-11T17:43:30.744Z,40.31
2023-03-11T17:48:32.088Z,40.30
2023-03-11T17:53:33.558Z,41.37
2023-03-11T17:58:35.576Z,42.30
2023-03-11T18:03:36.934Z,42.46
2023-03-11T18:08:38.505Z,43.35
2023-03-11T18:13:40.496Z,43.45
2023-03-11T18:18:44.016Z,43.19
2023-03-11T18:23:45.995Z,44.53
2023-03-11T18:28:47.351Z,44.67
2023-03-11T18:33:51.986Z,45.38
2023-03-11T18:38:54.413Z,45.68
2023-03-11T18:43:57.333Z,46.23
2023-03-11T18:49:00.992Z,46.56
2023-03-11T18:54:02.898Z,46.77
2023-03-11T18:59:04.256Z,46.61
2023-03-11T19:04:05.729Z,47.00
2023-03-11T19:09:07.093Z,47.35
2023-03-11T19:14:08.420Z,47.68
2023-03-11T19:19:11.782Z,48.42
2023-03-11T19:24:14.093Z,48.73
2023-03-11T19:29:15.511Z,48.82
2023-03-11T19:34:16.877Z,49.23
2023-03-11T19:39:18.213Z,50.02
2023-03-11T19:44:19.594Z,50.63
2023-03-11T19:49:21.877Z,50.23
2023-03-11T19:54:23.324Z,50.87
2023-03-11T19:59:24.790Z,51.33
2023-03-11T20:04:26.250Z,51.52
2023-03-11T20:09:27.677Z,52.09
2023-03-11T20:14:29.149Z,52.50
2023-03-11T20:19:30.562Z,52.41
2023-03-11T20:24:32.129Z,52.47
2023-03-11T20:29:33.628Z,52.58
2023-03-11T20:34:35.013Z,52.72
2023-03-11T20:39:38.470Z,52.69
2023-03-11T20:44:40.001Z,53.09
2023-03-11T20:49:43.119Z,53.18
2023-03-11T20:54:44.680Z,53.50
2023-03-11T20:59:46.156Z,53.36
2023-03-11T21:04:47.920Z,53.77
2023-03-11T21:09:54.579Z,53.94
2023-03-11T21:14:56.183Z,54.19
2023-03-11T21:19:57.547Z,54.06
2023-03-11T21:24:58.903Z,54.11
2023-03-11T21:30:00.458Z,54.47
2023-03-11T21:35:02.147Z,54.96
2023-03-11T21:40:04.038Z,54.43
2023-03-11T21:45:06.044Z,55.27
2023-03-11T21:50:08.062Z,54.81
2023-03-11T21:55:10.410Z,55.66
2023-03-11T22:00:12.456Z,55.19
2023-03-11T22:05:14.621Z,55.92
2023-03-11T22:10:16.808Z,56.33
2023-03-11T22:15:21.617Z,56.37
2023-03-11T22:20:23.078Z,56.74
2023-03-11T22:25:24.488Z,56.59
2023-03-11T22:30:25.902Z,56.34
2023-03-11T22:35:27.247Z,56.46
2023-03-11T22:40:29.647Z,56.88
2023-03-11T22:45:31.043Z,57.14
2023-03-11T22:50:33.216Z,57.89
2023-03-11T22:55:39.478Z,57.53
2023-03-11T23:00:43.941Z,57.79
2023-03-11T23:05:46.748Z,57.62
2023-03-11T23:10:48.441Z,57.72
2023-03-11T23:15:49.822Z,58.52
2023-03-11T23:20:51.264Z,57.83
2023-03-11T23:25:53.187Z,58.62
2023-03-11T23:30:54.533Z,58.29
2023-03-11T23:36:00.827Z,59.00
2023-03-11T23:41:08.483Z,58.33
2023-03-11T23:46:10.275Z,59.14
2023-03-11T23:51:12.016Z,58.97
2023-03-11T23:56:17.055Z,58.59
